WEATHER DATA

TODAY
Time Temp. Dewp. Hum. Wind dir Wind speed Wind gust Bar. 1h Prec. 24h Prec.
00:00 14.5 11.1 80 312 0.8 1.9 1018 0.0000 0.0000
00:10 14.4 11 80 315 0.8 1.4 1018.1 0.0000 0.0000
00:21 14.4 11 80 304 0.8 2.5 1018.2 0.0000 0.0000
00:27 14.4 11 80 311 0.8 1.9 1017.9 0.0000 0.0000
00:37 14.3 10.9 80 315 0.8 1.4 1018 0.0000 0.0000
00:47 14.2 11 81 318 0.3 1.4 1018.2 0.0000 0.0000
00:57 14.2 11 81 315 0.3 1.4 1018.2 0.0000 0.0000
01:08 14.1 10.9 81 308 0.8 1.9 1018.1 0.0000 0.0000
01:17 14 10.8 81 315 0.8 3.1 1018 0.0000 0.0000
01:27 14 10.8 81 315 0.8 1.4 1018 0.0000 0.0000
01:37 13.9 10.9 82 317 0.8 2.2 1017.9 0.0000 0.0000
01:48 13.9 10.9 82 315 0.8 1.9 1017.9 0.0000 0.0000
01:57 13.9 10.9 82 318 0.3 1.4 1018 0.0000 0.0000
02:07 13.9 10.9 82 311 0.8 1.9 1018.1 0.0000 0.0000
02:18 13.9 10.9 82 315 0.3 1.1 1018.1 0.0000 0.0000
02:28 13.9 10.9 82 318 0.3 1.9 1018.3 0.0000 0.0000
02:37 13.9 10.9 82 310 0.3 1.9 1017.9 0.0000 0.0000
02:48 13.9 10.9 82 311 0.3 1.1 1018.1 0.0000 0.0000
02:58 13.9 10.9 82 326 0.3 1.1 1017.9 0.0000 0.0000
03:08 13.9 10.9 82 318 0.8 1.9 1017.8 0.0000 0.0000
03:18 13.9 10.9 82 311 0.3 1.4 1017.8 0.0000 0.0000
03:28 13.9 10.9 82 321 0.8 1.4 1017.6 0.0000 0.0000
03:38 13.9 10.9 82 330 0.8 2.2 1017.6 0.0000 0.0000
03:48 13.8 10.8 82 322 0.3 1.4 1017.9 0.0000 0.0000
03:58 13.8 10.8 82 315 0.3 1.4 1017.8 0.0000 0.0000
04:08 13.7 10.7 82 322 0.3 1.4 1017.6 0.0000 0.0000
04:18 13.7 10.7 82 321 0.3 1.4 1017.7 0.0000 0.0000
04:28 13.7 10.7 82 322 0.3 1.1 1017.4 0.0000 0.0000
04:39 13.7 10.7 82 317 0.8 1.9 1017.5 0.0000 0.0000
04:49 13.6 10.6 82 318 0.8 1.4 1017.3 0.0000 0.0000
04:58 13.6 10.6 82 310 0.3 1.1 1017.8 0.0000 0.0000
05:09 13.6 10.6 82 302 0.3 1.1 1017.6 0.0000 0.0000
05:19 13.5 10.7 83 315 0.3 1.1 1017.7 0.0000 0.0000
05:29 13.5 10.7 83 318 0.3 1.4 1017.7 0.0000 0.0000
05:38 13.5 10.7 83 307 0.8 1.4 1017.5 0.0000 0.0000
05:49 13.5 10.7 83 315 0.8 1.9 1017.7 0.0000 0.0000
05:59 13.5 10.7 83 315 0.3 1.1 1017.5 0.0000 0.0000
06:09 13.5 10.7 83 327 0.8 1.4 1017.5 0.0000 0.0000
06:19 13.5 10.9 84 311 0.3 1.4 1017.6 0.0000 0.0000
06:30 13.6 11 84 321 0.8 1.4 1017.4 0.0000 0.0000
06:39 13.7 11 84 270 0.3 1.4 1017.6 0.0000 0.0000
06:48 13.8 11.1 84 305 0.3 1.1 1017.4 0.0000 0.0000
07:00 13.8 11 83 320 0.8 1.4 1017.5 0.0000 0.0000
07:10 13.7 10.9 83 315 0.3 1.4 1017.4 0.0000 0.0000
07:20 13.7 11 84 333 0.3 1.1 1017.2 0.0000 0.0000
07:29 13.8 11.1 84 315 0.3 1.1 1017.3 0.0000 0.0000
07:40 13.8 11.1 84 319 0.3 1.4 1017.4 0.0000 0.0000
07:50 13.8 11.1 84 318 0.3 1.4 1017.5 0.0000 0.0000
08:00 13.8 11.1 84 327 0.3 1.4 1017.4 0.0000 0.0000
08:11 13.9 11.2 84 315 0.3 1.4 1017.3 0.0000 0.0000
08:20 14 11.3 84 310 0.3 1.4 1017.5 0.0000 0.0000
08:30 14.1 11.4 84 321 0.8 2.5 1017.7 0.0000 0.0000
08:40 14 11.3 84 315 0.8 1.4 1017.6 0.0000 0.0000
08:51 14.2 11.5 84 303 0.3 1.1 1017.8 0.0000 0.0000
09:01 14.2 11.5 84 270 0.3 1.1 1018 0.0000 0.0000
09:09 14.3 11.6 84 270 0.3 1.4 1017.9 0.0000 0.0000
09:21 14.3 11.6 84 302 0.3 1.1 1018 0.0000 0.0000
09:40 14.4 11.6 83 315 0.3 1.1 1017.9 0.0000 0.0000
09:51 14.5 11.7 83 270 0.8 1.4 1018 0.0000 0.0000
10:01 14.6 11.7 83 315 0.8 1.4 1018 0.0000 0.0000
10:11 14.7 11.8 83 232 0.3 1.1 1017.8 0.0000 0.0000
10:22 14.8 11.9 83 315 0.3 1.4 1018 0.0000 0.0000
10:31 14.9 12 83 237 0.8 1.9 1018 0.0000 0.0000
10:41 15 12.1 83 186 0.3 1.1 1017.9 0.0000 0.0000
10:51 15.1 12.1 82 270 0.8 1.9 1017.9 0.0000 0.0000
11:02 15.3 12.2 82 239 0.8 1.9 1017.9 0.0000 0.0000
11:12 15.5 12.4 82 0 1.1 1017.6 0.0000 0.0000
11:22 15.6 12.4 81 315 0.3 2.2 1017.8 0.0000 0.0000
11:32 15.8 12.5 81 356 0.3 1.4 1017.7 0.0000 0.0000
11:41 16 12.7 81 225 0.3 1.1 1017.8 0.0000 0.0000
11:51 16.1 12.8 81 302 0.3 1.1 1017.8 0.0000 0.0000
12:02 16.2 12.7 80 15 0.3 1.4 1017.8 0.0000 0.0000
12:13 16.4 12.9 80 350 0.3 1.1 1017.8 0.0000 0.0000
12:22 16.3 12.7 79 325 0.8 1.4 1018 0.0000 0.0000
12:32 16.4 12.9 80 0 0.3 1.1 1017.9 0.0000 0.0000
12:43 16.6 12.9 79 323 0.3 1.9 1017.6 0.0000 0.0000
12:53 16.8 13.1 79 11 0.3 1.9 1018 0.0000 0.0000
13:03 16.7 12.8 78 270 0.3 1.9 1018 0.0000 0.0000
13:12 16.9 12.8 77 328 0.8 1.9 1017.9 0.0000 0.0000
13:23 16.9 13 78 331 0.3 1.4 1018.1 0.0000 0.0000
13:33 17.1 13.4 79 315 0.3 1.4 1017.8 0.0000 0.0000
13:43 17.1 13 77 317 0.8 1.9 1017.9 0.0000 0.0000
13:53 17.4 13.3 77 250 0.8 1.9 1017.7 0.0000 0.0000
14:03 17.7 13.6 77 338 0.3 1.1 1017.8 0.0000 0.0000
14:13 17.9 13.6 76 315 0.3 1.9 1017.6 0.0000 0.0000
14:23 18.1 13.6 75 315 0.3 1.4 1017.6 0.0000 0.0000
14:34 18.4 13.7 74 221 0.3 1.1 1017.7 0.0000 0.0000
14:44 18.6 14.1 75 221 0.3 1.4 1017.5 0.0000 0.0000
14:53 18.8 14.1 74 341 0.3 1.4 1017.5 0.0000 0.0000
15:03 19.1 14.2 73 318 0.8 1.9 1017.5 0.0000 0.0000
15:14 19 14.1 73 336 0.3 1.1 1017.4 0.0000 0.0000
15:24 19 13.8 72 331 0.3 1.4 1017.3 0.0000 0.0000
15:34 18.6 13.7 73 325 0.8 1.9 1017.4 0.0000 0.0000
15:44 18.7 14 74 21 0.3 1.4 1017.5 0.0000 0.0000
15:54 18.9 14 73 188 0.3 1.4 1017.2 0.0000 0.0000
16:04 19.3 14.1 72 270 0.8 1.4 1017.3 0.0000 0.0000
16:14 19.6 14.4 72 317 0.8 2.2 1017.2 0.0000 0.0000
16:24 19.8 14.4 71 131 0.3 1.4 1017.1 0.0000 0.0000
16:34 20.1 14.5 70 90 0.3 1.4 1016.9 0.0000 0.0000
16:44 20.2 14.6 70 90 0.3 1.1 1016.9 0.0000 0.0000
16:55 20.2 14.3 69 334 0.8 1.9 1016.8 0.0000 0.0000
17:04 20.2 14.6 70 90 0.3 1.1 1016.9 0.0000 0.0000
17:14 20.2 14.3 69 126 0.3 1.1 1016.7 0.0000 0.0000
17:24 20.2 14.8 71 351 0.3 1.9 1016.4 0.0000 0.0000
17:35 20.7 15.3 71 90 0.3 1.9 1016.6 0.0000 0.0000
17:45 21.4 15.5 69 167 0.3 1.9 1016.4 0.0000 0.0000
17:54 21.8 15.2 66 215 0.8 1.9 1016.6 0.0000 0.0000
18:05 21.6 15 66 53 0.3 0.8 1016.4 0.0000 0.0000
18:15 21.6 15 66 225 0.8 2.5 1016.2 0.0000 0.0000
18:25 21.5 15.1 67 175 0.3 1.4 1016.1 0.0000 0.0000
18:35 21.4 14.8 66 135 0.3 1.4 1016.2 0.0000 0.0000
18:45 21.3 14.7 66 135 0.3 1.4 1016.2 0.0000 0.0000
18:55 21 14.6 67 90 0.3 1.1 1016.1 0.0000 0.0000
19:05 21 14.6 67 225 0.3 1.1 1015.9 0.0000 0.0000
19:16 20.9 14.5 67 90 0.3 1.4 1016 0.0000 0.0000
19:26 20.9 14.8 68 45 0.3 1.1 1015.9 0.0000 0.0000
19:35 20.7 14.6 68 90 0.3 1.4 1016 0.0000 0.0000
19:45 20.6 14.5 68 139 0.3 1.4 1015.9 0.0000 0.0000
19:56 20.6 14.7 69 90 0.3 1.1 1015.8 0.0000 0.0000
20:06 20.5 14.6 69 135 0.3 1.1 1016 0.0000 0.0000
20:16 20.4 14.5 69 127 0.3 0.8 1016 0.0000 0.0000
20:26 20.4 14.5 69 150 0.3 1.1 1016 0.0000 0.0000
20:36 20.2 14.3 69 315 0.3 0.8 1016.2 0.0000 0.0000
20:46 20.1 14.5 70 0 0.8 1016 0.0000 0.0000

DAY STATISTIC

2019-07-17
TEMPERATURE
AVERAGE
16.3
HIGH
21.8
17:54
LOW
13.5
05:19
PRESSURE
AVERAGE
1017.4
HIGH
1018.3
02:28
LOW
1015.8
19:56
DEWPOINT
AVERAGE
12.4
HIGH
15.5
17:45
LOW
10.6
04:49
HUMIDITY
AVERAGE
78
HIGH
84
06:19
LOW
66
17:54
WIND SPEED
AVERAGE
0.5
HIGH
0.8
00:00
WIND GUST
AVERAGE
1.5
HIGH
3.1
01:17
WIND DIRECTION
PREVAILING
NW
59.7%
N
7.3
NE
1.6
E
6.5
SE
6.5
S
3.2
SW
7.3
W
6.5
NW
59.7
PRECIPITATION
RAIN HOUR
0.0
RAIN DAY
0.0
TEMPERATURE (°C)
LOW
13.5
HIGH
21.8
AVERAGE
16.3
PRESSURE (hpa)
LOW
1015.8
HIGH
1018.3
AVERAGE
1017.4
DEVICE